Time;durP1;ratioP1;P1;durP2;ratioP2;P2;SDS_P1;SDS_P2;PMS_P1;PMS_P2;Temp;Humidity;BMP_temperature;BMP_pressure;BME280_temperature;BME280_humidity;BME280_pressure;Samples;Min_cycle;Max_cycle;Signal;HPM_P1;HPM_P2
2024/01/16 00:01:00;;;;;;;;;1.00;1.00;;;;;21.21;42.50;98936.05;112271;1260;19318;-74
2024/01/16 00:03:45;;;;;;;;;3.00;3.00;;;;;21.20;42.42;98943.05;112311;1246;19785;-74
2024/01/16 00:06:12;;;;;;;;;1.00;1.00;;;;;21.20;42.37;98953.98;112407;1260;18827;-74
2024/01/16 00:08:40;;;;;;;;;3.00;3.00;;;;;21.21;42.54;98954.63;112352;1253;19241;-74
2024/01/16 00:11:07;;;;;;;;;3.00;3.00;;;;;21.20;42.30;98961.34;112377;1245;20891;-74
2024/01/16 00:13:34;;;;;;;;;1.00;1.00;;;;;21.20;42.24;98965.31;112333;1245;20007;-74
2024/01/16 00:16:02;;;;;;;;;1.00;1.00;;;;;21.19;42.21;98973.39;111906;1260;367554;-74
2024/01/16 00:18:29;;;;;;;;;2.00;2.00;;;;;21.19;41.68;98977.55;112344;1260;18169;-74
2024/01/16 00:20:57;;;;;;;;;1.00;1.00;;;;;21.18;42.22;98981.04;112205;1260;21214;-74
2024/01/16 00:23:24;;;;;;;;;1.00;1.00;;;;;21.19;42.12;98983.73;112383;1260;19740;-74
2024/01/16 00:25:52;;;;;;;;;1.00;1.00;;;;;21.19;42.25;98989.37;112270;1260;19551;-74
2024/01/16 00:28:20;;;;;;;;;1.00;1.00;;;;;21.19;41.93;98997.41;112392;1260;18606;-74
2024/01/16 00:30:47;;;;;;;;;1.00;1.00;;;;;21.18;41.82;99002.50;112231;1245;19363;-74
2024/01/16 00:33:14;;;;;;;;;3.00;3.00;;;;;21.19;41.87;99002.98;112390;1245;19937;-75
2024/01/16 00:35:42;;;;;;;;;1.00;1.00;;;;;21.18;41.82;99013.23;112273;1253;20065;-75
2024/01/16 00:38:09;;;;;;;;;1.00;1.00;;;;;21.19;42.10;99014.26;112398;1260;19752;-74
2024/01/16 00:40:37;;;;;;;;;3.67;2.33;;;;;21.18;41.80;99021.78;112269;1260;19497;-74
2024/01/16 00:43:04;;;;;;;;;1.00;1.00;;;;;21.18;41.95;99026.98;112427;1253;18941;-74
2024/01/16 00:45:32;;;;;;;;;1.00;1.00;;;;;21.18;41.93;99026.85;112297;1245;19378;-73
2024/01/16 00:47:59;;;;;;;;;1.00;1.00;;;;;21.19;41.68;99038.70;112456;1245;19604;-73
2024/01/16 00:50:27;;;;;;;;;1.00;1.00;;;;;21.18;41.75;99043.58;112279;1245;19028;-74
2024/01/16 00:52:54;;;;;;;;;1.00;1.00;;;;;21.17;41.70;99050.61;112435;1253;20959;-74
2024/01/16 00:55:22;;;;;;;;;1.00;1.00;;;;;21.18;41.65;99054.52;112321;1260;18399;-73
2024/01/16 00:57:49;;;;;;;;;1.00;1.00;;;;;21.17;41.62;99057.43;112427;1260;18920;-74
2024/01/16 01:00:17;;;;;;;;;1.00;1.00;;;;;21.17;41.50;99060.26;112340;1245;21245;-73
2024/01/16 01:02:44;;;;;;;;;1.00;1.00;;;;;21.17;41.39;99070.66;112209;1260;18190;-74
2024/01/16 01:05:12;;;;;;;;;1.00;1.00;;;;;21.17;41.56;99071.59;112356;1260;18632;-74
2024/01/16 01:07:39;;;;;;;;;1.00;1.00;;;;;21.17;41.53;99076.39;112160;1260;21085;-75
2024/01/16 01:10:07;;;;;;;;;1.00;1.00;;;;;21.17;41.72;99082.55;112381;1260;18277;-75
2024/01/16 01:12:34;;;;;;;;;1.00;1.00;;;;;21.17;41.45;99081.06;112197;1260;20138;-74
2024/01/16 01:15:01;;;;;;;;;1.00;1.00;;;;;21.17;41.36;99084.66;112390;1260;19328;-75
2024/01/16 01:17:29;;;;;;;;;1.00;1.00;;;;;21.16;41.50;99091.39;112257;1245;19770;-75
2024/01/16 01:19:56;;;;;;;;;1.00;1.00;;;;;21.16;41.42;99098.95;112422;1260;19945;-75
2024/01/16 01:22:24;;;;;;;;;1.00;1.00;;;;;21.17;41.45;99101.93;112275;1247;20588;-75
2024/01/16 01:24:51;;;;;;;;;3.00;3.00;;;;;21.17;41.51;99106.44;112427;1245;19636;-75
2024/01/16 01:27:19;;;;;;;;;1.00;1.00;;;;;21.16;41.12;99109.06;112285;1260;20142;-75
2024/01/16 01:29:47;;;;;;;;;1.00;1.00;;;;;21.17;41.53;99108.63;112436;1260;19541;-74
2024/01/16 01:32:14;;;;;;;;;1.00;1.00;;;;;21.17;41.38;99110.16;112259;1260;20921;-75
2024/01/16 01:34:42;;;;;;;;;1.00;1.00;;;;;21.16;41.20;99111.21;112402;1260;18699;-76
2024/01/16 01:37:09;;;;;;;;;1.00;1.00;;;;;21.15;41.36;99112.52;112311;1260;19367;-75
2024/01/16 01:39:36;;;;;;;;;3.00;1.00;;;;;21.16;41.53;99122.19;112434;1260;19918;-75
2024/01/16 01:42:04;;;;;;;;;1.00;1.00;;;;;21.16;41.36;99126.61;112343;1245;18581;-74
2024/01/16 01:44:31;;;;;;;;;1.00;1.00;;;;;21.16;41.18;99128.48;112355;1245;20795;-75
2024/01/16 01:46:59;;;;;;;;;1.00;1.00;;;;;21.15;40.98;99131.00;112371;1245;18155;-75
2024/01/16 01:49:26;;;;;;;;;1.00;1.00;;;;;21.16;41.20;99130.43;112175;1260;19765;-75
2024/01/16 01:51:54;;;;;;;;;1.00;1.00;;;;;21.16;41.18;99139.08;112324;1246;21959;-75
2024/01/16 01:54:22;;;;;;;;;1.00;1.00;;;;;21.17;41.01;99140.98;112221;1245;19631;-75
2024/01/16 01:56:50;;;;;;;;;1.00;1.00;;;;;21.16;41.30;99139.85;112320;1245;20169;-75
2024/01/16 01:59:18;;;;;;;;;1.00;1.00;;;;;21.16;41.14;99145.52;112467;1245;23153;-75
2024/01/16 02:01:45;;;;;;;;;1.00;1.00;;;;;21.14;41.33;99145.61;112284;1260;18708;-75
2024/01/16 02:04:13;;;;;;;;;1.00;1.00;;;;;21.15;41.21;99148.14;112416;1260;19941;-75
2024/01/16 02:06:40;;;;;;;;;1.00;1.00;;;;;21.14;41.07;99155.58;112298;1246;20678;-75
2024/01/16 02:09:07;;;;;;;;;1.00;1.00;;;;;21.15;41.20;99162.36;112326;1260;19726;-75
2024/01/16 02:11:35;;;;;;;;;1.00;1.00;;;;;21.16;41.20;99169.16;112351;1252;18797;-75
2024/01/16 02:14:02;;;;;;;;;1.00;1.00;;;;;21.15;40.91;99173.96;112206;1245;22006;-75
2024/01/16 02:16:30;;;;;;;;;1.00;1.00;;;;;21.14;41.23;99175.20;112339;1260;19632;-75
2024/01/16 02:18:57;;;;;;;;;1.00;1.00;;;;;21.14;41.07;99178.34;112205;1245;19999;-74
2024/01/16 02:21:24;;;;;;;;;1.00;1.00;;;;;21.14;40.72;99183.63;112408;1260;20676;-75
2024/01/16 02:23:52;;;;;;;;;1.00;1.00;;;;;21.14;41.17;99188.14;112223;1260;19706;-75
2024/01/16 02:26:19;;;;;;;;;1.00;1.00;;;;;21.13;40.94;99190.67;112427;1260;19900;-75
2024/01/16 02:28:47;;;;;;;;;1.00;1.00;;;;;21.13;41.03;99198.58;112273;1260;20691;-75
2024/01/16 02:31:14;;;;;;;;;1.00;1.00;;;;;21.13;40.59;99204.19;112453;1253;18162;-73
2024/01/16 02:33:42;;;;;;;;;1.00;1.00;;;;;21.13;41.01;99210.17;112277;1245;19992;-74
2024/01/16 02:36:09;;;;;;;;;1.00;1.00;;;;;21.12;40.73;99209.21;112451;1247;20610;-74
2024/01/16 02:38:36;;;;;;;;;1.00;1.00;;;;;21.14;40.75;99214.66;112321;1260;18539;-74
2024/01/16 02:41:04;;;;;;;;;1.00;1.00;;;;;21.13;40.93;99216.38;112340;1245;19959;-73
2024/01/16 02:43:31;;;;;;;;;1.00;1.00;;;;;21.12;40.84;99222.27;112335;1260;20805;-73
2024/01/16 02:45:59;;;;;;;;;1.00;1.00;;;;;21.13;40.84;99231.48;112174;1260;19510;-73
2024/01/16 02:48:26;;;;;;;;;1.00;1.00;;;;;21.13;40.74;99230.39;112373;1253;20001;-73
2024/01/16 02:50:53;;;;;;;;;1.00;1.00;;;;;21.13;40.76;99236.09;112227;1260;19310;-74
2024/01/16 02:53:21;;;;;;;;;1.00;1.00;;;;;21.13;40.51;99237.40;112399;1260;19448;-73
2024/01/16 02:55:48;;;;;;;;;1.00;1.00;;;;;21.13;40.66;99235.83;112247;1260;18821;-73
2024/01/16 02:58:16;;;;;;;;;1.00;1.00;;;;;21.13;40.80;99232.73;112393;1253;19401;-73
2024/01/16 03:00:43;;;;;;;;;1.00;1.00;;;;;21.11;40.75;99232.71;112254;1245;20761;-74
2024/01/16 03:03:11;;;;;;;;;1.00;1.00;;;;;21.12;40.89;99235.89;112387;1246;19868;-73
2024/01/16 03:05:38;;;;;;;;;1.67;1.00;;;;;21.12;40.64;99239.16;112244;1260;20597;-73
2024/01/16 03:08:06;;;;;;;;;1.00;1.00;;;;;21.13;40.46;99237.63;112422;1260;19483;-74
2024/01/16 03:10:33;;;;;;;;;1.00;1.00;;;;;21.12;40.50;99240.19;112277;1260;21173;-73
2024/01/16 03:13:01;;;;;;;;;1.00;1.00;;;;;21.12;40.57;99239.60;112463;1260;19732;-73
2024/01/16 03:15:30;;;;;;;;;1.00;1.00;;;;;21.12;40.44;99242.93;112338;1260;19902;-74
2024/01/16 03:17:58;;;;;;;;;1.00;1.00;;;;;21.11;40.61;99246.70;112343;1260;18638;-74
2024/01/16 03:20:25;;;;;;;;;1.00;1.00;;;;;21.13;40.56;99249.27;112229;1246;22507;-74
2024/01/16 03:22:53;;;;;;;;;1.00;1.00;;;;;21.11;40.50;99253.50;112342;1260;19479;-74
2024/01/16 03:25:21;;;;;;;;;1.00;1.00;;;;;21.11;40.58;99255.58;112197;1260;20121;-73
2024/01/16 03:27:48;;;;;;;;;3.00;1.00;;;;;21.13;40.66;99257.07;112352;1260;22153;-74
2024/01/16 03:30:16;;;;;;;;;1.00;1.00;;;;;21.10;40.63;99259.52;112224;1245;19586;-74
2024/01/16 03:32:43;;;;;;;;;1.00;1.00;;;;;21.12;40.45;99262.53;112363;1260;20346;-74
2024/01/16 03:35:11;;;;;;;;;1.00;1.00;;;;;21.12;40.27;99265.09;112219;1246;20758;-74
2024/01/16 03:37:38;;;;;;;;;1.00;1.00;;;;;21.10;40.34;99265.02;112387;1247;19791;-74
2024/01/16 03:40:07;;;;;;;;;1.00;1.00;;;;;21.11;40.36;99264.84;112239;1260;18553;-74
2024/01/16 03:42:34;;;;;;;;;1.00;1.00;;;;;21.11;40.40;99272.08;112312;1260;21846;-74
2024/01/16 03:45:02;;;;;;;;;1.00;1.00;;;;;21.10;40.30;99270.20;112308;1246;19659;-74
2024/01/16 03:47:29;;;;;;;;;1.00;1.00;;;;;21.10;40.33;99277.77;112327;1260;18609;-74
2024/01/16 03:49:57;;;;;;;;;1.00;1.00;;;;;21.09;39.99;99284.20;112225;1260;19189;-73
2024/01/16 03:52:24;;;;;;;;;1.00;1.00;;;;;21.10;39.99;99282.95;112379;1260;18218;-74
2024/01/16 03:54:51;;;;;;;;;1.00;1.00;;;;;21.10;40.44;99285.06;112249;1260;18639;-74
2024/01/16 03:57:19;;;;;;;;;1.00;1.00;;;;;21.09;40.31;99286.11;112383;1246;20922;-74
2024/01/16 03:59:46;;;;;;;;;1.00;1.00;;;;;21.10;40.50;99284.17;112257;1253;18194;-74
2024/01/16 04:02:14;;;;;;;;;2.33;2.33;;;;;21.11;40.33;99286.14;112390;1260;18631;-73
2024/01/16 04:04:41;;;;;;;;;1.00;1.00;;;;;21.11;40.26;99287.10;112285;1245;20971;-74
2024/01/16 04:07:09;;;;;;;;;1.00;1.00;;;;;21.11;40.37;99289.50;112454;1260;18201;-74
2024/01/16 04:09:36;;;;;;;;;1.00;1.00;;;;;21.11;40.16;99291.13;112310;1252;18804;-74
2024/01/16 04:12:04;;;;;;;;;1.00;1.00;;;;;21.11;39.88;99300.61;112448;1253;19646;-74
2024/01/16 04:14:31;;;;;;;;;3.00;3.00;;;;;21.11;39.89;99304.97;112337;1260;18627;-74
2024/01/16 04:16:58;;;;;;;;;3.00;3.00;;;;;21.12;40.21;99308.05;112425;1260;20042;-74
2024/01/16 04:19:26;;;;;;;;;1.00;1.00;;;;;21.10;40.13;99307.71;112342;1253;19371;-74
2024/01/16 04:21:53;;;;;;;;;3.00;3.00;;;;;21.10;40.13;99314.73;112215;1260;18113;-74
2024/01/16 04:24:21;;;;;;;;;3.00;3.00;;;;;21.11;40.18;99320.16;112343;1245;20023;-74
2024/01/16 04:26:48;;;;;;;;;3.00;3.00;;;;;21.10;40.07;99317.23;112220;1245;19547;-73
2024/01/16 04:29:15;;;;;;;;;3.00;3.00;;;;;21.10;40.34;99323.52;112384;1260;18655;-74
2024/01/16 04:31:43;;;;;;;;;3.00;3.00;;;;;21.11;40.17;99332.80;112218;1254;20077;-74
2024/01/16 04:34:11;;;;;;;;;3.00;3.00;;;;;21.10;40.14;99330.48;112364;1260;19731;-73
2024/01/16 04:36:38;;;;;;;;;3.00;3.00;;;;;21.11;40.06;99334.66;112254;1260;18683;-74
2024/01/16 04:39:05;;;;;;;;;4.00;4.00;;;;;21.10;39.97;99335.06;112399;1260;18644;-74
2024/01/16 04:41:33;;;;;;;;;6.00;6.00;;;;;21.10;40.07;99334.23;112276;1260;20666;-74
2024/01/16 04:44:00;;;;;;;;;6.00;5.00;;;;;21.10;40.25;99339.30;112408;1260;19492;-73
2024/01/16 04:46:28;;;;;;;;;4.00;4.00;;;;;21.09;40.02;99344.92;112292;1260;18717;-74
2024/01/16 04:48:55;;;;;;;;;3.00;3.00;;;;;21.10;39.98;99354.93;112429;1260;19320;-74
2024/01/16 04:51:23;;;;;;;;;5.33;4.00;;;;;21.10;39.88;99360.48;112298;1260;19489;-74
2024/01/16 04:53:50;;;;;;;;;4.00;4.00;;;;;21.10;40.26;99370.95;112424;1260;18679;-74
2024/01/16 04:56:17;;;;;;;;;6.00;4.00;;;;;21.08;40.15;99380.24;112319;1260;19754;-73
2024/01/16 04:58:45;;;;;;;;;6.00;6.00;;;;;21.07;40.04;99381.02;112290;1245;19896;-73
2024/01/16 05:01:12;;;;;;;;;6.00;6.00;;;;;21.08;39.87;99387.37;112355;1245;21218;-73
2024/01/16 05:03:40;;;;;;;;;4.67;4.67;;;;;21.09;40.11;99389.04;112218;1245;20600;-74
2024/01/16 05:06:08;;;;;;;;;6.50;4.00;;;;;21.08;40.17;99393.32;112348;1260;18136;-74
2024/01/16 05:08:36;;;;;;;;;7.00;7.00;;;;;21.08;40.02;99397.87;112470;1245;18631;-74
2024/01/16 05:11:03;;;;;;;;;4.00;4.00;;;;;21.08;39.95;99398.25;112281;1246;22428;-73
2024/01/16 05:13:31;;;;;;;;;6.50;6.50;;;;;21.07;39.88;99398.34;112437;1246;21161;-74
2024/01/16 05:15:58;;;;;;;;;7.00;7.00;;;;;21.08;39.94;99402.80;112327;1246;20166;-74
2024/01/16 05:18:26;;;;;;;;;9.00;8.33;;;;;21.08;39.92;99403.21;112295;1245;20734;-73
2024/01/16 05:20:53;;;;;;;;;7.00;7.00;;;;;21.07;39.83;99407.59;112301;1260;18704;-74
2024/01/16 05:23:21;;;;;;;;;6.67;6.67;;;;;21.08;39.71;99411.98;112113;1260;19970;-74
2024/01/16 05:25:49;;;;;;;;;7.00;7.00;;;;;21.09;39.81;99413.45;112246;1261;21053;-74
2024/01/16 05:28:16;;;;;;;;;8.00;8.00;;;;;21.07;39.98;99413.52;112238;1262;20747;-73
2024/01/16 05:30:44;;;;;;;;;7.00;7.00;;;;;21.08;39.82;99414.71;112244;1246;19946;-74
2024/01/16 05:33:11;;;;;;;;;7.00;6.50;;;;;21.08;39.75;99417.65;112043;1261;21972;-75
2024/01/16 05:35:38;;;;;;;;;6.50;6.50;;;;;21.08;39.97;99422.71;112255;1246;19576;-74
2024/01/16 05:38:06;;;;;;;;;6.50;6.50;;;;;21.08;39.77;99424.45;112187;1246;19106;-75
2024/01/16 05:40:34;;;;;;;;;7.00;7.00;;;;;21.08;39.78;99422.21;112285;1262;19285;-73
2024/01/16 05:43:01;;;;;;;;;9.00;9.00;;;;;21.08;39.82;99423.91;112135;1262;19459;-73
2024/01/16 05:45:29;;;;;;;;;9.00;9.00;;;;;21.08;39.85;99434.31;112252;1246;20435;-73
2024/01/16 05:47:56;;;;;;;;;9.00;7.00;;;;;21.07;39.67;99442.00;112148;1254;19353;-73
2024/01/16 05:50:24;;;;;;;;;7.00;7.00;;;;;21.08;39.51;99446.08;112302;1262;18388;-73
2024/01/16 05:52:51;;;;;;;;;9.00;7.00;;;;;21.08;39.95;99452.87;112171;1261;19313;-73
2024/01/16 05:55:21;;;;;;;;;6.00;6.00;;;;;21.08;39.67;99460.29;112305;1246;20969;-72
2024/01/16 05:57:48;;;;;;;;;6.00;6.00;;;;;21.08;39.68;99466.45;112301;1246;21089;-73
2024/01/16 06:00:17;;;;;;;;;10.00;7.00;;;;;21.08;39.51;99464.05;112217;1246;18686;-74
2024/01/16 06:02:45;;;;;;;;;7.00;6.00;;;;;21.09;39.68;99465.65;112287;1246;20719;-73
2024/01/16 06:05:12;;;;;;;;;7.00;7.00;;;;;21.08;39.77;99471.00;112239;1245;19963;-74
2024/01/16 06:07:40;;;;;;;;;6.50;6.50;;;;;21.07;39.63;99477.07;112344;1260;20271;-73
2024/01/16 06:10:08;;;;;;;;;7.00;7.00;;;;;21.07;39.82;99481.20;112196;1260;19362;-74
2024/01/16 06:12:35;;;;;;;;;7.00;7.00;;;;;21.09;39.63;99490.09;112349;1260;19470;-73
2024/01/16 06:15:03;;;;;;;;;7.00;6.00;;;;;21.08;39.89;99494.42;112107;1260;20206;-73
2024/01/16 06:17:30;;;;;;;;;7.00;6.50;;;;;21.09;39.83;99505.47;112361;1252;19604;-73
2024/01/16 06:19:58;;;;;;;;;7.00;7.00;;;;;21.08;39.81;99507.35;112229;1245;20799;-73
2024/01/16 06:22:25;;;;;;;;;9.00;7.00;;;;;21.08;39.79;99509.73;112313;1260;19918;-74
2024/01/16 06:24:53;;;;;;;;;8.00;8.00;;;;;21.08;39.71;99515.71;112274;1260;19578;-74
2024/01/16 06:27:20;;;;;;;;;7.00;6.00;;;;;21.07;39.90;99515.50;112357;1260;19432;-73
2024/01/16 06:29:47;;;;;;;;;6.00;6.00;;;;;21.08;39.84;99518.78;112295;1245;20190;-74
2024/01/16 06:32:15;;;;;;;;;6.33;6.33;;;;;21.07;39.75;99524.06;112432;1260;19693;-74
2024/01/16 06:34:42;;;;;;;;;6.00;6.00;;;;;21.09;39.63;99523.27;112303;1260;21918;-74
2024/01/16 06:37:10;;;;;;;;;7.00;6.50;;;;;21.07;39.85;99530.66;112436;1260;18658;-73
2024/01/16 06:39:37;;;;;;;;;7.00;6.00;;;;;21.08;39.55;99536.79;112341;1245;21103;-74
2024/01/16 06:42:05;;;;;;;;;6.00;6.00;;;;;21.10;39.88;99537.52;112434;1245;19590;-74
2024/01/16 06:44:33;;;;;;;;;4.00;4.00;;;;;21.17;39.48;99534.55;112325;1245;19863;-74
2024/01/16 06:47:00;;;;;;;;;6.00;5.33;;;;;21.14;39.85;99545.88;112421;1245;22292;-73
2024/01/16 06:49:28;;;;;;;;;6.00;6.00;;;;;21.16;40.26;99548.52;112335;1253;18384;-74
2024/01/16 06:51:57;;;;;;;;;4.00;4.00;;;;;21.24;40.33;99551.48;112421;1260;21090;-73
2024/01/16 06:54:24;;;;;;;;;6.00;6.00;;;;;21.27;40.34;99548.16;112281;1253;21175;-73
2024/01/16 06:56:51;;;;;;;;;6.00;5.00;;;;;21.29;40.82;99549.15;112333;1260;19493;-74
2024/01/16 06:59:21;;;;;;;;;4.00;4.00;;;;;21.34;40.80;99549.12;112385;1260;20010;-73
2024/01/16 07:01:49;;;;;;;;;4.00;4.00;;;;;21.33;41.09;99555.06;112385;1260;19402;-74
2024/01/16 07:04:16;;;;;;;;;3.00;3.00;;;;;21.32;41.46;99560.30;112318;1260;18387;-72
2024/01/16 07:06:44;;;;;;;;;6.00;6.00;;;;;21.32;41.16;99560.75;112408;1260;18678;-74
2024/01/16 07:09:11;;;;;;;;;6.00;4.00;;;;;21.29;41.19;99569.31;112347;1253;19883;-74
2024/01/16 07:11:42;;;;;;;;;3.00;3.00;;;;;21.20;41.16;99577.02;112422;1253;19521;-73
2024/01/16 07:14:09;;;;;;;;;3.50;3.50;;;;;21.17;41.60;99580.63;112448;1260;18659;-74
2024/01/16 07:16:37;;;;;;;;;4.00;4.00;;;;;21.18;41.50;99587.35;112341;1253;19404;-73
2024/01/16 07:19:04;;;;;;;;;4.00;4.00;;;;;21.29;41.04;99593.33;112551;1260;19500;-74
2024/01/16 07:21:33;;;;;;;;;4.00;3.00;;;;;21.29;41.03;99594.05;112507;1247;20278;-73
2024/01/16 07:24:01;;;;;;;;;3.67;3.67;;;;;21.24;41.07;99594.40;112519;1260;19541;-73
2024/01/16 07:26:28;;;;;;;;;3.00;3.00;;;;;21.32;41.17;99608.53;112353;1260;19527;-73
2024/01/16 07:28:55;;;;;;;;;3.00;3.00;;;;;21.26;41.43;99608.36;112526;1260;18645;-71
2024/01/16 07:31:23;;;;;;;;;3.00;3.00;;;;;21.19;41.87;99610.27;112310;1260;19267;-74
2024/01/16 07:33:50;;;;;;;;;3.00;3.00;;;;;21.16;42.23;99612.39;112612;1260;21229;-72
2024/01/16 07:36:18;;;;;;;;;4.00;4.00;;;;;21.24;42.04;99609.93;112389;1260;18644;-73
2024/01/16 07:38:45;;;;;;;;;3.33;3.33;;;;;21.32;42.00;99615.56;112460;1260;20873;-74
2024/01/16 07:41:13;;;;;;;;;3.00;3.00;;;;;21.33;41.65;99616.85;112326;1260;18748;-74
2024/01/16 07:43:40;;;;;;;;;4.00;4.00;;;;;21.29;42.20;99614.97;112440;1260;18823;-74
2024/01/16 07:46:08;;;;;;;;;3.00;3.00;;;;;21.22;42.44;99620.91;112340;1260;21730;-73
2024/01/16 07:48:35;;;;;;;;;3.00;3.00;;;;;21.22;42.39;99620.35;112332;1245;19525;-73
2024/01/16 07:51:03;;;;;;;;;2.33;2.33;;;;;21.24;41.65;99631.66;112341;1245;20008;-74
2024/01/16 07:53:30;;;;;;;;;3.00;3.00;;;;;21.21;42.16;99641.88;112181;1260;19575;-74
2024/01/16 07:55:58;;;;;;;;;3.00;3.00;;;;;21.19;41.92;99638.87;112382;1246;19604;-73
2024/01/16 07:58:25;;;;;;;;;3.00;3.00;;;;;21.24;41.85;99649.48;112184;1260;18702;-74
2024/01/16 08:00:52;;;;;;;;;3.00;3.00;;;;;21.23;41.79;99650.96;112367;1260;19771;-74
2024/01/16 08:03:20;;;;;;;;;3.00;3.00;;;;;21.22;41.97;99655.29;112229;1260;20969;-73
2024/01/16 08:05:47;;;;;;;;;3.33;3.00;;;;;21.23;42.05;99656.89;112329;1260;20130;-74
2024/01/16 08:08:15;;;;;;;;;3.00;3.00;;;;;21.35;41.61;99659.30;112298;1260;20683;-74
2024/01/16 08:10:42;;;;;;;;;3.00;3.00;;;;;21.29;41.61;99660.06;112394;1260;19763;-74
2024/01/16 08:13:10;;;;;;;;;3.00;3.00;;;;;21.28;41.93;99662.48;112165;1260;18891;-74
2024/01/16 08:15:37;;;;;;;;;3.00;3.00;;;;;21.36;41.95;99668.66;112346;1253;20115;-74
2024/01/16 08:18:05;;;;;;;;;4.00;3.00;;;;;21.39;41.94;99677.75;112282;1253;18200;-75
2024/01/16 08:20:32;;;;;;;;;3.00;3.00;;;;;21.44;42.22;99681.64;112438;1246;20262;-73
2024/01/16 08:22:59;;;;;;;;;3.00;3.00;;;;;21.54;42.27;99682.70;112278;1260;20676;-75
2024/01/16 08:25:27;;;;;;;;;4.00;4.00;;;;;21.64;41.85;99693.30;112401;1260;18154;-74
2024/01/16 08:27:54;;;;;;;;;3.00;3.00;;;;;21.71;41.87;99698.42;112316;1260;20328;-74
2024/01/16 08:30:22;;;;;;;;;3.00;3.00;;;;;21.74;41.90;99702.22;112246;1245;22328;-75
2024/01/16 08:32:50;;;;;;;;;4.00;4.00;;;;;21.88;41.61;99704.52;112329;1260;18697;-74
2024/01/16 08:35:17;;;;;;;;;3.00;3.00;;;;;21.84;41.67;99707.27;112253;1260;18814;-76
2024/01/16 08:37:45;;;;;;;;;4.00;4.00;;;;;21.88;42.28;99711.72;112335;1245;23226;-75
2024/01/16 08:40:12;;;;;;;;;3.00;3.00;;;;;21.82;42.49;99723.23;112161;1260;18693;-73
2024/01/16 08:42:40;;;;;;;;;3.00;3.00;;;;;22.00;41.52;99729.23;112332;1246;21021;-74
2024/01/16 08:45:07;;;;;;;;;3.00;3.00;;;;;21.95;41.52;99732.63;112224;1260;19257;-75
2024/01/16 08:47:35;;;;;;;;;6.00;5.00;;;;;21.84;41.25;99737.80;112342;1260;18136;-78
2024/01/16 08:50:03;;;;;;;;;7.00;4.00;;;;;21.80;41.21;99741.58;112217;1260;18637;-75
2024/01/16 08:52:30;;;;;;;;;4.00;3.00;;;;;21.77;41.12;99742.52;112317;1253;21211;-75
2024/01/16 08:54:58;;;;;;;;;3.00;3.00;;;;;21.75;42.08;99746.04;112188;1260;18125;-74
2024/01/16 08:57:25;;;;;;;;;3.67;3.67;;;;;21.77;42.21;99747.05;112351;1253;18610;-75
2024/01/16 08:59:53;;;;;;;;;6.00;6.00;;;;;21.73;41.30;99747.98;112220;1260;21009;-75
2024/01/16 09:02:21;;;;;;;;;4.00;4.00;;;;;21.73;41.50;99744.98;112361;1260;19784;-75
2024/01/16 09:04:50;;;;;;;;;4.00;3.00;;;;;21.73;41.62;99749.89;112258;1260;18807;-75
2024/01/16 09:07:18;;;;;;;;;3.00;3.00;;;;;21.73;41.65;99759.54;112326;1244;20913;-74
2024/01/16 09:09:45;;;;;;;;;3.00;3.00;;;;;21.66;41.42;99753.62;112466;1260;18567;-76
2024/01/16 09:12:13;;;;;;;;;6.00;4.00;;;;;21.58;42.04;99749.51;112292;1260;18533;-75
2024/01/16 09:14:41;;;;;;;;;4.00;4.00;;;;;21.61;41.95;99752.52;112428;1260;20658;-75
2024/01/16 09:17:08;;;;;;;;;3.50;3.00;;;;;21.62;41.97;99756.52;112266;1260;19729;-76
2024/01/16 09:19:36;;;;;;;;;4.00;3.00;;;;;21.57;42.01;99757.31;112431;1260;19153;-75
2024/01/16 09:22:04;;;;;;;;;4.00;3.00;;;;;21.59;41.95;99764.58;112246;1260;19488;-76
2024/01/16 09:24:31;;;;;;;;;3.00;3.00;;;;;21.69;41.60;99768.50;112410;1244;19655;-76
2024/01/16 09:26:58;;;;;;;;;3.67;3.67;;;;;21.73;41.29;99773.07;112272;1260;19938;-76
2024/01/16 09:29:27;;;;;;;;;3.50;3.50;;;;;21.74;41.10;99777.67;112464;1244;19523;-75
2024/01/16 09:31:54;;;;;;;;;3.00;3.00;;;;;21.71;41.43;99784.44;112233;1244;19711;-75
2024/01/16 09:34:22;;;;;;;;;4.00;4.00;;;;;21.58;41.92;99788.70;112416;1244;19251;-74
2024/01/16 09:36:49;;;;;;;;;3.00;3.00;;;;;21.52;41.97;99791.85;112286;1253;20790;-75
2024/01/16 09:39:17;;;;;;;;;3.00;3.00;;;;;21.58;42.18;99796.94;112445;1244;18356;-75
2024/01/16 09:41:44;;;;;;;;;4.00;4.00;;;;;21.80;41.74;99795.33;112197;1260;20123;-74
2024/01/16 09:44:12;;;;;;;;;4.00;4.00;;;;;21.78;42.05;99800.30;112187;1244;20809;-75
2024/01/16 09:46:39;;;;;;;;;11.00;9.50;;;;;21.71;41.80;99797.10;112150;1244;20659;-74
2024/01/16 09:49:07;;;;;;;;;16.00;14.00;;;;;21.74;41.58;99785.20;112156;1260;19019;-74
2024/01/16 09:51:35;;;;;;;;;19.67;17.33;;;;;21.73;41.28;99782.21;112173;1244;21181;-74
2024/01/16 09:54:08;;;;;;;;;30.00;26.00;;;;;21.79;41.11;99786.63;112190;1253;18752;-74
2024/01/16 09:56:36;;;;;;;;;42.50;34.00;;;;;21.81;40.94;99791.17;112142;1260;20276;-74
2024/01/16 09:59:04;;;;;;;;;41.50;31.50;;;;;21.83;40.97;99797.84;112161;1260;19530;-73
2024/01/16 10:01:31;;;;;;;;;52.00;41.00;;;;;21.65;41.85;99796.27;112105;1247;19943;-72
2024/01/16 10:03:59;;;;;;;;;59.50;41.00;;;;;21.60;42.15;99794.11;112036;1253;18737;-73
2024/01/16 10:06:26;;;;;;;;;52.00;37.00;;;;;21.59;42.15;99803.02;112063;1262;20835;-75
2024/01/16 10:08:54;;;;;;;;;48.50;42.00;;;;;21.72;42.06;99807.48;112202;1246;18556;-74
2024/01/16 10:11:22;;;;;;;;;50.00;41.00;;;;;21.75;42.62;99807.53;112243;1248;20273;-75
2024/01/16 10:13:49;;;;;;;;;38.00;33.00;;;;;21.74;42.56;99807.61;112239;1254;19484;-77
2024/01/16 10:16:16;;;;;;;;;38.00;32.00;;;;;21.67;42.82;99807.34;112306;1262;18965;-77
2024/01/16 10:18:44;;;;;;;;;30.50;24.50;;;;;21.76;42.60;99811.34;112186;1246;20386;-76
2024/01/16 10:21:12;;;;;;;;;25.00;23.67;;;;;21.78;42.26;99818.83;112273;1254;19376;-74
2024/01/16 10:23:41;;;;;;;;;22.00;19.50;;;;;21.76;42.65;99820.44;112327;1246;19898;-76
2024/01/16 10:26:08;;;;;;;;;19.00;15.00;;;;;21.82;42.60;99824.70;112211;1254;19928;-75
2024/01/16 10:28:35;;;;;;;;;21.00;16.00;;;;;21.85;42.02;99822.46;112402;1246;22182;-75
2024/01/16 10:31:03;;;;;;;;;18.00;17.00;;;;;21.79;42.16;99824.42;112242;1246;20109;-75
2024/01/16 10:33:30;;;;;;;;;21.33;14.33;;;;;21.81;42.56;99830.83;112369;1246;21018;-74
2024/01/16 10:35:58;;;;;;;;;16.00;14.00;;;;;21.67;42.93;99834.81;112228;1246;21141;-76
2024/01/16 10:38:26;;;;;;;;;13.00;12.00;;;;;21.60;43.31;99836.29;112320;1246;20079;-78
2024/01/16 10:40:53;;;;;;;;;16.00;15.00;;;;;21.54;43.25;99837.92;112201;1262;20008;-76
2024/01/16 10:43:21;;;;;;;;;15.00;13.00;;;;;21.50;43.29;99830.03;112238;1254;19728;-74
2024/01/16 10:45:48;;;;;;;;;17.00;16.00;;;;;21.54;42.88;99834.27;112234;1261;18728;-75
2024/01/16 10:48:16;;;;;;;;;13.00;12.00;;;;;21.55;42.59;99837.95;112100;1261;18746;-75
2024/01/16 10:50:43;;;;;;;;;10.00;9.00;;;;;21.43;42.91;99834.77;112219;1261;19557;-75
2024/01/16 10:53:11;;;;;;;;;10.00;9.00;;;;;21.39;42.84;99840.18;112124;1253;18567;-75
2024/01/16 10:55:39;;;;;;;;;11.00;10.00;;;;;21.36;43.07;99845.19;112243;1246;20016;-75
2024/01/16 10:58:06;;;;;;;;;10.67;10.67;;;;;21.33;43.30;99847.23;112137;1246;22330;-75
2024/01/16 11:00:34;;;;;;;;;16.50;9.00;;;;;21.30;43.02;99840.14;112218;1261;19437;-75
2024/01/16 11:03:01;;;;;;;;;9.50;9.00;;;;;21.32;42.90;99838.98;112180;1260;18664;-75
2024/01/16 11:05:31;;;;;;;;;9.00;9.00;;;;;21.26;42.90;99842.13;112408;1260;19445;-74
2024/01/16 11:07:59;;;;;;;;;9.00;7.00;;;;;21.26;42.96;99843.14;112422;1260;21081;-75
2024/01/16 11:10:26;;;;;;;;;7.67;7.67;;;;;21.29;42.79;99843.38;112236;1260;18599;-75
2024/01/16 11:12:53;;;;;;;;;8.00;7.00;;;;;21.27;42.92;99842.65;112449;1253;19185;-74
2024/01/16 11:15:21;;;;;;;;;9.00;9.00;;;;;21.26;42.82;99843.47;112250;1245;19784;-75
2024/01/16 11:17:48;;;;;;;;;9.00;9.00;;;;;21.29;42.87;99845.77;112457;1260;18564;-75
2024/01/16 11:20:17;;;;;;;;;9.00;9.00;;;;;21.23;42.54;99843.09;112206;1244;20827;-75
2024/01/16 11:22:44;;;;;;;;;6.00;6.00;;;;;21.26;42.43;99848.27;112369;1260;19700;-75
2024/01/16 11:25:12;;;;;;;;;9.00;7.00;;;;;21.23;42.77;99845.64;112174;1260;18804;-75